Time;durP1;ratioP1;P1;durP2;ratioP2;P2;SDS_P1;SDS_P2;PMS_P1;PMS_P2;Temp;Humidity;BMP_temperature;BMP_pressure;BME280_temperature;BME280_humidity;BME280_pressure;Samples;Min_cycle;Max_cycle;Signal;HPM_P1;HPM_P2
2021/01/17 00:00:41;;;;;;;17.10;13.07;;;1.00;99.90;;;;;;5037187;28;20507;-54
2021/01/17 00:03:07;;;;;;;17.77;13.27;;;1.10;99.90;;;;;;5035954;28;20414;-54
2021/01/17 00:05:32;;;;;;;20.57;14.30;;;1.10;99.90;;;;;;5039343;28;20263;-53
2021/01/17 00:07:58;;;;;;;16.60;13.40;;;0.90;99.90;;;;;;5037434;28;20586;-52
2021/01/17 00:10:27;;;;;;;18.60;13.63;;;0.90;99.90;;;;;;5039803;28;20191;-55
2021/01/17 00:12:54;;;;;;;18.60;14.83;;;1.00;99.90;;;;;;5040237;28;20442;-57
2021/01/17 00:15:21;;;;;;;18.03;13.73;;;1.00;99.90;;;;;;5040171;28;20412;-52
2021/01/17 00:17:46;;;;;;;21.27;15.87;;;1.00;99.90;;;;;;5036555;28;21049;-57
2021/01/17 00:20:15;;;;;;;18.00;13.50;;;0.90;99.90;;;;;;5033875;28;20546;-56
2021/01/17 00:22:41;;;;;;;20.23;14.27;;;1.00;99.90;;;;;;5034065;28;20244;-55
2021/01/17 00:25:10;;;;;;;18.97;14.23;;;0.80;99.90;;;;;;5034718;28;20489;-55
2021/01/17 00:27:35;;;;;;;20.80;14.60;;;0.70;99.90;;;;;;5033951;28;20409;-57
2021/01/17 00:30:03;;;;;;;20.87;14.60;;;0.80;99.90;;;;;;5033622;28;20467;-54
2021/01/17 00:32:29;;;;;;;19.70;14.20;;;0.90;99.90;;;;;;5033734;28;20182;-56
2021/01/17 00:34:54;;;;;;;17.33;13.30;;;0.80;99.90;;;;;;5033746;28;20458;-56
2021/01/17 00:37:20;;;;;;;17.07;13.30;;;0.70;99.90;;;;;;5033847;28;20673;-57
2021/01/17 00:39:46;;;;;;;19.90;15.00;;;0.70;99.90;;;;;;5033346;28;20233;-57
2021/01/17 00:42:16;;;;;;;19.20;13.97;;;0.70;99.90;;;;;;5033597;28;20173;-57
2021/01/17 00:44:42;;;;;;;17.70;14.10;;;0.60;99.90;;;;;;5036990;28;20219;-54
2021/01/17 00:47:12;;;;;;;22.17;15.73;;;0.70;99.90;;;;;;5037855;28;20462;-57
2021/01/17 00:49:38;;;;;;;20.37;16.23;;;0.90;99.90;;;;;;5037411;28;20410;-59
2021/01/17 00:52:04;;;;;;;26.47;18.47;;;1.00;99.90;;;;;;5037369;28;20432;-57
2021/01/17 00:54:29;;;;;;;20.00;15.70;;;0.90;99.90;;;;;;5036313;28;20547;-57
2021/01/17 00:56:55;;;;;;;22.97;15.13;;;0.90;99.90;;;;;;5037418;28;20422;-56
2021/01/17 00:59:20;;;;;;;16.40;13.63;;;0.90;99.90;;;;;;5037375;28;20201;-57
2021/01/17 01:01:47;;;;;;;23.00;16.57;;;1.00;99.90;;;;;;5037169;28;20186;-58
2021/01/17 01:04:16;;;;;;;22.03;15.17;;;1.00;99.90;;;;;;5037655;28;20305;-58
2021/01/17 01:06:43;;;;;;;22.07;16.37;;;1.10;99.90;;;;;;5037851;28;20419;-56
2021/01/17 01:09:11;;;;;;;23.77;17.20;;;1.00;99.90;;;;;;5035956;28;20495;-57
2021/01/17 01:11:38;;;;;;;19.47;14.60;;;1.00;99.90;;;;;;5036862;28;20424;-57
2021/01/17 01:14:04;;;;;;;20.33;16.20;;;1.00;99.90;;;;;;5036946;28;20409;-55
2021/01/17 01:16:30;;;;;;;19.80;15.57;;;0.90;99.90;;;;;;5036865;28;20500;-55
2021/01/17 01:18:57;;;;;;;22.77;15.83;;;0.80;99.90;;;;;;5035552;28;20562;-57
2021/01/17 01:21:30;;;;;;;20.37;16.30;;;0.80;99.90;;;;;;5036903;28;20424;-59
2021/01/17 01:23:56;;;;;;;24.63;18.17;;;0.90;99.90;;;;;;5045385;28;20937;-54
2021/01/17 01:26:22;;;;;;;22.70;16.60;;;0.90;99.90;;;;;;5061750;28;20901;-54
2021/01/17 01:28:49;;;;;;;23.27;17.00;;;1.00;99.90;;;;;;5062013;28;20417;-53
2021/01/17 01:31:25;;;;;;;23.47;16.77;;;1.00;99.90;;;;;;5062956;28;20477;-53
2021/01/17 01:33:52;;;;;;;23.77;17.20;;;1.10;99.90;;;;;;5061002;28;20402;-54
2021/01/17 01:36:22;;;;;;;20.40;16.20;;;1.10;99.90;;;;;;5061445;28;20438;-55
2021/01/17 01:38:48;;;;;;;22.30;16.87;;;1.20;99.90;;;;;;5061127;28;20448;-56
2021/01/17 01:41:14;;;;;;;21.00;16.50;;;1.20;99.90;;;;;;5060241;28;20428;-56
2021/01/17 01:43:40;;;;;;;19.63;16.10;;;0.90;99.90;;;;;;5056407;28;20401;-59
2021/01/17 01:46:11;;;;;;;23.27;16.40;;;0.80;99.90;;;;;;5056383;28;20911;-57
2021/01/17 01:48:36;;;;;;;24.50;17.30;;;0.90;99.90;;;;;;5052175;28;20200;-57
2021/01/17 01:51:02;;;;;;;23.37;15.50;;;1.00;99.90;;;;;;5056265;28;20479;-58
2021/01/17 01:53:31;;;;;;;20.90;15.90;;;0.90;99.90;;;;;;5057861;28;20642;-53
2021/01/17 01:55:58;;;;;;;22.83;18.00;;;0.80;99.90;;;;;;5048308;28;20535;-54
2021/01/17 01:58:24;;;;;;;22.20;18.53;;;0.70;99.90;;;;;;5040043;28;20396;-53
2021/01/17 02:00:50;;;;;;;22.03;16.70;;;0.70;99.90;;;;;;5041678;28;20489;-54
2021/01/17 02:03:16;;;;;;;22.97;16.47;;;0.80;99.90;;;;;;5040616;28;20904;-57
2021/01/17 02:05:43;;;;;;;27.33;18.67;;;0.60;99.90;;;;;;5039612;28;20406;-53
2021/01/17 02:08:27;;;;;;;26.80;16.43;;;0.60;99.90;;;;;;5041293;28;20400;-53
2021/01/17 02:11:03;;;;;;;24.37;18.37;;;0.70;99.90;;;;;;5040428;28;20436;-53
2021/01/17 02:13:38;;;;;;;26.63;18.83;;;0.90;99.90;;;;;;5040690;28;20479;-53
2021/01/17 02:16:06;;;;;;;21.63;16.67;;;0.80;99.90;;;;;;5041654;28;20471;-54
2021/01/17 02:18:35;;;;;;;26.20;18.60;;;0.70;99.90;;;;;;5040979;28;20425;-54
2021/01/17 02:21:02;;;;;;;24.93;18.17;;;0.70;99.90;;;;;;5041167;28;20511;-55
2021/01/17 02:23:39;;;;;;;26.43;17.67;;;0.80;99.90;;;;;;5040787;28;20413;-53
2021/01/17 02:26:06;;;;;;;21.00;17.20;;;0.70;99.90;;;;;;5041597;28;20433;-55
2021/01/17 02:28:32;;;;;;;21.93;17.03;;;0.70;99.90;;;;;;5040761;28;20404;-53
2021/01/17 02:30:58;;;;;;;26.77;18.40;;;0.70;99.90;;;;;;5039452;28;20580;-57
2021/01/17 02:33:34;;;;;;;24.23;18.10;;;0.70;99.90;;;;;;5042001;28;20572;-56
2021/01/17 02:36:14;;;;;;;25.50;17.40;;;0.60;99.90;;;;;;5056713;28;20394;-57
2021/01/17 02:38:58;;;;;;;21.70;17.13;;;0.60;99.90;;;;;;5055685;28;20383;-56
2021/01/17 02:41:33;;;;;;;25.47;19.90;;;0.70;99.90;;;;;;5055362;28;20424;-56
2021/01/17 02:44:00;;;;;;;24.30;18.70;;;0.50;99.90;;;;;;5055205;28;20381;-56
2021/01/17 02:46:25;;;;;;;23.93;17.50;;;0.60;99.90;;;;;;5055359;28;20448;-54
2021/01/17 02:48:51;;;;;;;24.33;18.17;;;0.70;99.90;;;;;;5054608;28;20602;-56
2021/01/17 02:51:17;;;;;;;28.10;20.27;;;0.70;99.90;;;;;;5054983;28;20219;-58
2021/01/17 02:54:09;;;;;;;26.20;18.90;;;0.70;99.90;;;;;;5054919;28;20171;-56
2021/01/17 02:56:40;;;;;;;28.30;19.77;;;0.80;99.90;;;;;;5049527;28;20671;-58
2021/01/17 02:59:11;;;;;;;26.03;19.73;;;0.70;99.90;;;;;;5035085;28;20455;-57
2021/01/17 03:01:38;;;;;;;27.57;20.20;;;0.70;99.90;;;;;;5034899;28;20420;-58
2021/01/17 03:04:37;;;;;;;23.57;17.30;;;0.90;99.90;;;;;;5034579;28;20453;-58
2021/01/17 03:07:05;;;;;;;24.00;17.67;;;1.00;99.90;;;;;;5034467;28;20493;-57
2021/01/17 03:09:33;;;;;;;20.77;17.23;;;1.10;99.90;;;;;;5034839;28;20438;-56
2021/01/17 03:12:03;;;;;;;23.00;17.57;;;1.10;99.90;;;;;;5034410;28;20823;-56
2021/01/17 03:14:34;;;;;;;25.03;17.37;;;1.00;99.90;;;;;;5033952;28;20431;-57
2021/01/17 03:17:01;;;;;;;26.97;18.73;;;1.10;99.90;;;;;;5035003;28;20500;-55
2021/01/17 03:19:26;;;;;;;21.80;17.30;;;1.20;99.90;;;;;;5034145;28;20540;-57
2021/01/17 03:21:52;;;;;;;19.57;15.70;;;1.20;99.90;;;;;;5032396;28;20472;-58
2021/01/17 03:24:17;;;;;;;26.33;18.30;;;1.20;99.90;;;;;;5034385;28;20164;-57
2021/01/17 03:26:43;;;;;;;23.70;17.57;;;1.10;99.90;;;;;;5034681;28;20226;-55
2021/01/17 03:29:09;;;;;;;23.10;16.73;;;0.90;99.90;;;;;;5034383;28;20176;-58
2021/01/17 03:31:34;;;;;;;23.93;17.23;;;0.90;99.90;;;;;;5034590;28;20189;-57
2021/01/17 03:34:00;;;;;;;20.77;15.40;;;1.00;99.90;;;;;;5034219;28;20652;-58
2021/01/17 03:36:25;;;;;;;24.73;18.00;;;1.10;99.90;;;;;;5033946;28;20176;-57
2021/01/17 03:38:51;;;;;;;23.97;17.97;;;1.20;99.90;;;;;;5034529;28;20195;-56
2021/01/17 03:41:16;;;;;;;23.90;18.97;;;1.00;99.90;;;;;;5034530;28;20257;-56
2021/01/17 03:43:42;;;;;;;25.07;19.40;;;1.00;99.90;;;;;;5034316;28;20281;-56
2021/01/17 03:46:08;;;;;;;26.33;19.10;;;0.90;99.90;;;;;;5034320;28;20166;-57
2021/01/17 03:48:33;;;;;;;20.97;17.30;;;0.90;99.90;;;;;;5034184;28;20292;-56
2021/01/17 03:50:59;;;;;;;25.43;18.40;;;0.90;99.90;;;;;;5034563;28;20199;-56
2021/01/17 03:53:24;;;;;;;24.97;17.73;;;0.90;99.90;;;;;;5034941;28;20180;-55
2021/01/17 03:55:50;;;;;;;23.50;17.27;;;0.90;99.90;;;;;;5049745;28;20247;-54
2021/01/17 03:58:15;;;;;;;24.93;18.87;;;0.90;99.90;;;;;;5054954;28;20165;-54
2021/01/17 04:00:41;;;;;;;23.70;18.13;;;1.00;99.90;;;;;;5060663;28;20214;-54
2021/01/17 04:03:06;;;;;;;23.33;18.40;;;0.90;99.90;;;;;;5056347;28;20530;-56
2021/01/17 04:05:32;;;;;;;26.23;18.07;;;1.00;99.90;;;;;;5053092;28;20197;-58
2021/01/17 04:07:57;;;;;;;26.67;19.10;;;1.10;99.90;;;;;;5053929;28;20162;-55
2021/01/17 04:10:23;;;;;;;26.10;20.00;;;1.10;99.90;;;;;;5054698;28;20217;-57
2021/01/17 04:12:49;;;;;;;27.90;20.20;;;1.20;99.90;;;;;;5054248;28;20169;-54
2021/01/17 04:15:14;;;;;;;26.63;20.47;;;1.30;99.90;;;;;;5049360;28;20188;-58
2021/01/17 04:17:40;;;;;;;25.17;18.93;;;1.30;99.90;;;;;;5042004;28;20187;-57
2021/01/17 04:20:06;;;;;;;25.73;18.20;;;1.30;99.90;;;;;;5033409;28;20297;-58
2021/01/17 04:22:36;;;;;;;28.30;20.27;;;1.30;99.90;;;;;;5033576;28;20189;-56
2021/01/17 04:25:06;;;;;;;26.87;20.10;;;1.20;99.90;;;;;;5034414;28;20397;-59
2021/01/17 04:27:32;;;;;;;29.03;21.00;;;1.20;99.90;;;;;;5033636;28;20458;-57
2021/01/17 04:29:58;;;;;;;27.10;19.70;;;1.20;99.90;;;;;;5033447;28;20428;-57
2021/01/17 04:32:24;;;;;;;31.60;19.97;;;1.20;99.90;;;;;;5033411;28;20404;-57
2021/01/17 04:34:50;;;;;;;31.07;21.23;;;1.10;99.90;;;;;;5033530;28;20171;-58
2021/01/17 04:37:20;;;;;;;26.80;19.00;;;1.00;99.90;;;;;;5033379;28;20422;-58
2021/01/17 04:39:46;;;;;;;23.67;19.30;;;1.20;99.90;;;;;;5033661;28;20472;-56
2021/01/17 04:42:16;;;;;;;24.87;18.73;;;1.30;99.90;;;;;;5033578;28;20440;-56
2021/01/17 04:44:49;;;;;;;26.00;19.47;;;1.30;99.90;;;;;;5033630;28;20200;-57
2021/01/17 04:47:18;;;;;;;27.40;20.27;;;1.20;99.90;;;;;;5033719;28;20427;-54
2021/01/17 04:49:47;;;;;;;25.00;19.17;;;1.10;99.90;;;;;;5033295;28;20909;-58
2021/01/17 04:52:14;;;;;;;28.13;20.63;;;0.80;99.90;;;;;;5032986;28;20836;-58
2021/01/17 04:54:41;;;;;;;31.47;23.70;;;0.90;99.90;;;;;;5033813;28;21009;-58
2021/01/17 04:57:11;;;;;;;31.60;20.40;;;0.80;99.90;;;;;;5033282;28;20426;-58
2021/01/17 04:59:46;;;;;;;27.90;20.13;;;0.70;99.90;;;;;;5032641;28;20795;-58
2021/01/17 05:02:43;;;;;;;33.67;22.83;;;0.80;99.90;;;;;;5033654;28;20780;-53
2021/01/17 05:05:14;;;;;;;28.00;20.80;;;1.00;99.90;;;;;;5037171;28;20754;-54
2021/01/17 05:07:49;;;;;;;26.40;20.40;;;1.20;99.90;;;;;;5037785;28;20822;-53
2021/01/17 05:10:32;;;;;;;28.60;20.87;;;1.20;99.90;;;;;;5035719;28;20442;-52
2021/01/17 05:13:08;;;;;;;29.70;20.30;;;1.20;99.90;;;;;;5036751;28;20557;-54
2021/01/17 05:15:40;;;;;;;25.40;20.27;;;1.30;99.90;;;;;;5036944;28;20403;-54
2021/01/17 05:18:06;;;;;;;27.10;19.13;;;1.40;99.90;;;;;;5039314;28;20438;-54
2021/01/17 05:20:32;;;;;;;28.87;19.70;;;1.40;99.90;;;;;;5037851;28;20464;-55
2021/01/17 05:22:58;;;;;;;31.43;22.17;;;1.30;99.90;;;;;;5039278;28;20408;-56
2021/01/17 05:25:26;;;;;;;27.47;20.80;;;1.30;99.90;;;;;;5037198;28;20401;-54
2021/01/17 05:27:52;;;;;;;28.63;20.20;;;1.20;99.90;;;;;;5037042;28;20403;-53
2021/01/17 05:30:18;;;;;;;29.63;21.40;;;1.10;99.90;;;;;;5038689;28;20438;-55
2021/01/17 05:32:50;;;;;;;30.23;21.47;;;1.10;99.90;;;;;;5039901;28;20404;-54
2021/01/17 05:35:21;;;;;;;27.83;22.57;;;1.20;99.90;;;;;;5039173;28;20479;-55
2021/01/17 05:37:52;;;;;;;27.27;19.10;;;1.20;99.90;;;;;;5039771;28;20482;-54
2021/01/17 05:40:18;;;;;;;28.07;20.80;;;1.30;99.90;;;;;;5039832;28;20508;-53
2021/01/17 05:42:46;;;;;;;26.20;20.47;;;1.30;99.90;;;;;;5040542;28;20740;-53
2021/01/17 05:45:16;;;;;;;25.57;18.33;;;1.30;99.90;;;;;;5039951;28;20398;-53
2021/01/17 05:47:53;;;;;;;28.27;20.83;;;1.30;99.90;;;;;;5040165;28;20451;-53
2021/01/17 05:50:19;;;;;;;26.53;20.20;;;1.40;99.90;;;;;;5039664;28;20433;-53
2021/01/17 05:52:50;;;;;;;28.73;20.33;;;1.30;99.90;;;;;;5040355;28;20409;-56
2021/01/17 05:55:16;;;;;;;27.93;20.37;;;1.30;99.90;;;;;;5039683;28;20393;-54
2021/01/17 05:57:42;;;;;;;34.17;23.17;;;1.30;99.90;;;;;;5037899;28;20519;-55
2021/01/17 06:00:08;;;;;;;34.20;23.70;;;1.20;99.90;;;;;;5039255;28;20491;-57
2021/01/17 06:02:34;;;;;;;33.00;23.40;;;1.10;99.90;;;;;;5038950;28;20190;-53
2021/01/17 06:05:02;;;;;;;29.97;20.30;;;1.00;99.90;;;;;;5044120;28;20424;-56
2021/01/17 06:07:30;;;;;;;31.93;23.97;;;1.00;99.90;;;;;;5060072;28;20426;-54
2021/01/17 06:09:57;;;;;;;30.33;22.50;;;1.00;99.90;;;;;;5059643;28;20443;-54
2021/01/17 06:12:33;;;;;;;31.60;22.10;;;1.00;99.90;;;;;;5059094;28;20407;-53
2021/01/17 06:15:10;;;;;;;29.67;21.37;;;0.90;99.90;;;;;;5055834;28;20415;-55
2021/01/17 06:17:46;;;;;;;31.80;22.60;;;0.90;99.90;;;;;;5039018;28;20486;-55
2021/01/17 06:20:25;;;;;;;32.07;21.80;;;0.90;99.90;;;;;;5039401;28;20982;-53
2021/01/17 06:23:00;;;;;;;30.20;23.00;;;1.00;99.90;;;;;;5038097;28;20454;-56
2021/01/17 06:25:33;;;;;;;33.43;24.53;;;1.10;99.90;;;;;;5038511;28;20963;-53
2021/01/17 06:28:05;;;;;;;37.20;23.53;;;1.10;99.90;;;;;;5038519;28;20433;-52
2021/01/17 06:30:32;;;;;;;31.23;22.90;;;1.20;99.90;;;;;;5038398;28;20452;-55
2021/01/17 06:32:58;;;;;;;31.60;21.80;;;1.10;99.90;;;;;;5039562;28;20416;-54
2021/01/17 06:35:38;;;;;;;28.80;21.33;;;1.10;99.90;;;;;;5038614;28;20416;-55
2021/01/17 06:38:17;;;;;;;36.37;23.03;;;1.30;99.90;;;;;;5036869;28;20416;-55
2021/01/17 06:40:48;;;;;;;33.47;22.60;;;1.40;99.90;;;;;;5038897;28;20476;-54
2021/01/17 06:43:15;;;;;;;31.60;20.30;;;1.50;99.90;;;;;;5039813;28;20411;-55
2021/01/17 06:45:43;;;;;;;30.50;21.20;;;1.50;99.90;;;;;;5038967;28;20891;-55
2021/01/17 06:48:24;;;;;;;31.77;22.63;;;1.60;99.90;;;;;;5037996;28;20431;-54
2021/01/17 06:50:50;;;;;;;29.20;22.10;;;1.70;99.90;;;;;;5037224;28;20440;-56
2021/01/17 06:53:23;;;;;;;32.27;22.00;;;1.70;99.90;;;;;;5038513;28;20415;-55
2021/01/17 06:56:09;;;;;;;31.13;23.13;;;1.70;99.90;;;;;;5038298;28;20887;-54
2021/01/17 06:58:39;;;;;;;29.73;21.40;;;1.50;99.90;;;;;;5036988;28;20426;-54
2021/01/17 07:01:05;;;;;;;32.63;23.43;;;1.50;99.90;;;;;;5038698;28;20453;-57
2021/01/17 07:03:49;;;;;;;29.23;21.83;;;1.50;99.90;;;;;;5039047;28;20734;-55
2021/01/17 07:06:38;;;;;;;28.80;21.03;;;1.60;99.90;;;;;;5038448;28;20181;-55
2021/01/17 07:09:24;;;;;;;34.43;25.37;;;1.60;99.90;;;;;;5039602;28;20509;-55
2021/01/17 07:11:59;;;;;;;31.40;21.77;;;1.60;99.90;;;;;;5057317;28;20519;-55
2021/01/17 07:14:28;;;;;;;32.63;20.73;;;1.50;99.90;;;;;;5058290;28;20485;-54
2021/01/17 07:16:59;;;;;;;29.87;20.30;;;1.60;99.90;;;;;;5057903;28;20410;-54
2021/01/17 07:19:32;;;;;;;33.77;22.40;;;1.70;99.90;;;;;;5057518;28;20439;-53
2021/01/17 07:22:03;;;;;;;34.93;24.43;;;1.70;99.90;;;;;;5047762;28;20798;-54
2021/01/17 07:24:30;;;;;;;30.70;21.83;;;1.80;99.90;;;;;;5038278;28;20396;-53
2021/01/17 07:27:26;;;;;;;27.90;21.57;;;1.80;99.90;;;;;;5035895;28;20440;-56
2021/01/17 07:29:58;;;;;;;26.43;21.47;;;1.80;99.90;;;;;;5034692;28;20385;-55
2021/01/17 07:32:36;;;;;;;36.37;24.10;;;1.80;99.90;;;;;;5033288;28;20849;-58
2021/01/17 07:35:10;;;;;;;31.43;21.43;;;1.80;99.90;;;;;;5034335;28;20420;-55
2021/01/17 07:37:41;;;;;;;29.63;22.50;;;1.80;99.90;;;;;;5033955;28;20388;-57
2021/01/17 07:40:08;;;;;;;32.83;23.97;;;1.80;99.90;;;;;;5033131;28;20459;-58
2021/01/17 07:42:36;;;;;;;33.30;25.00;;;1.70;99.90;;;;;;5034438;28;20400;-56
2021/01/17 07:45:18;;;;;;;34.40;24.60;;;1.60;99.90;;;;;;5034246;28;20467;-56
2021/01/17 07:47:45;;;;;;;34.87;25.93;;;1.60;99.90;;;;;;5034938;28;20851;-57
2021/01/17 07:50:12;;;;;;;31.60;22.07;;;1.60;99.90;;;;;;5034425;28;20519;-57
2021/01/17 07:52:46;;;;;;;31.17;23.03;;;1.60;99.90;;;;;;5033390;28;20433;-56
2021/01/17 07:55:14;;;;;;;33.83;22.77;;;1.70;99.90;;;;;;5033569;28;20396;-56
2021/01/17 07:57:44;;;;;;;37.73;27.07;;;1.70;99.90;;;;;;5033281;28;20790;-56
2021/01/17 08:00:11;;;;;;;38.33;24.60;;;1.70;99.90;;;;;;5033974;28;20549;-58
2021/01/17 08:02:37;;;;;;;33.33;25.17;;;1.60;99.90;;;;;;5033571;28;20400;-59
2021/01/17 08:05:03;;;;;;;35.23;24.70;;;1.70;99.90;;;;;;5053624;28;20436;-56
2021/01/17 08:07:33;;;;;;;34.27;23.90;;;1.70;99.90;;;;;;5053599;28;20411;-56
2021/01/17 08:10:00;;;;;;;32.77;24.10;;;1.70;99.90;;;;;;5039927;28;20409;-57
2021/01/17 08:12:33;;;;;;;31.30;22.80;;;1.70;99.90;;;;;;5033367;28;20408;-56
2021/01/17 08:15:16;;;;;;;35.03;24.33;;;1.80;99.90;;;;;;5032602;28;20429;-57
2021/01/17 08:17:42;;;;;;;32.60;25.23;;;1.80;99.90;;;;;;5034332;28;20761;-58
2021/01/17 08:20:08;;;;;;;32.90;24.83;;;1.80;99.90;;;;;;5034038;28;20515;-57
2021/01/17 08:22:34;;;;;;;32.70;24.33;;;1.90;99.90;;;;;;5032706;28;20490;-55
2021/01/17 08:25:00;;;;;;;28.20;20.13;;;1.90;99.90;;;;;;5033444;28;20407;-57
2021/01/17 08:27:33;;;;;;;31.70;22.93;;;2.00;99.90;;;;;;5034004;28;20175;-58
2021/01/17 08:30:08;;;;;;;32.00;22.57;;;2.10;99.90;;;;;;5032541;28;20505;-55
2021/01/17 08:32:49;;;;;;;31.10;21.43;;;2.20;99.90;;;;;;5033559;28;20471;-58
2021/01/17 08:35:20;;;;;;;38.77;24.30;;;2.20;99.90;;;;;;5033759;28;20397;-56
2021/01/17 08:37:56;;;;;;;34.07;25.27;;;2.10;99.90;;;;;;5033566;28;20798;-57
2021/01/17 08:40:28;;;;;;;31.93;21.60;;;2.10;99.90;;;;;;5033362;28;20458;-58
2021/01/17 08:42:58;;;;;;;30.77;22.77;;;2.10;99.90;;;;;;5033228;28;20405;-56
2021/01/17 08:45:24;;;;;;;29.63;20.87;;;2.20;99.90;;;;;;5033375;28;20489;-58
2021/01/17 08:47:57;;;;;;;33.70;23.27;;;2.30;99.90;;;;;;5033239;28;20486;-55
2021/01/17 08:50:33;;;;;;;33.77;24.30;;;2.40;99.90;;;;;;5033069;28;20190;-58
2021/01/17 08:53:16;;;;;;;31.77;23.83;;;2.50;99.90;;;;;;5035754;28;20397;-54
2021/01/17 08:55:43;;;;;;;26.77;20.13;;;2.60;99.90;;;;;;5036210;28;20481;-56
2021/01/17 08:58:13;;;;;;;31.87;23.97;;;2.50;99.90;;;;;;5035284;28;20441;-54
2021/01/17 09:00:51;;;;;;;26.93;21.13;;;2.40;99.90;;;;;;5036137;28;20508;-54
2021/01/17 09:03:27;;;;;;;30.77;23.50;;;2.40;99.90;;;;;;5035643;28;20412;-54
2021/01/17 09:05:54;;;;;;;33.37;24.07;;;2.40;99.90;;;;;;5039703;28;20382;-55
2021/01/17 09:08:21;;;;;;;33.40;24.80;;;2.40;99.90;;;;;;5039191;28;20456;-53
2021/01/17 09:10:49;;;;;;;33.17;24.37;;;2.40;99.90;;;;;;5039893;28;20437;-52
2021/01/17 09:13:19;;;;;;;33.43;23.90;;;2.60;99.90;;;;;;5039993;28;20934;-54
2021/01/17 09:16:02;;;;;;;33.53;23.67;;;2.70;99.90;;;;;;5039817;28;20412;-54
2021/01/17 09:18:30;;;;;;;35.20;24.90;;;2.80;99.90;;;;;;5039696;28;20416;-53
2021/01/17 09:20:57;;;;;;;36.10;26.83;;;3.00;99.90;;;;;;5038795;28;20809;-54
2021/01/17 09:23:24;;;;;;;32.00;23.77;;;3.00;99.90;;;;;;5037887;28;20499;-56
2021/01/17 09:25:58;;;;;;;31.23;24.00;;;3.00;99.90;;;;;;5038293;28;20500;-55
2021/01/17 09:28:25;;;;;;;34.27;22.77;;;3.10;99.90;;;;;;5037199;28;20455;-55
2021/01/17 09:30:52;;;;;;;28.00;21.40;;;3.00;99.90;;;;;;5036509;28;20430;-56
2021/01/17 09:33:19;;;;;;;27.10;19.63;;;2.90;99.90;;;;;;5038154;28;20422;-52
2021/01/17 09:35:45;;;;;;;24.80;18.00;;;3.20;99.90;;;;;;5039116;28;20425;-53
2021/01/17 09:38:19;;;;;;;31.53;22.97;;;3.20;99.90;;;;;;5039819;28;20426;-56
2021/01/17 09:40:46;;;;;;;25.30;19.07;;;3.30;99.90;;;;;;5040255;28;20466;-53
2021/01/17 09:43:12;;;;;;;27.23;18.97;;;3.40;99.90;;;;;;5039888;28;20489;-55
2021/01/17 09:45:38;;;;;;;27.10;20.80;;;3.50;99.90;;;;;;5040256;28;20430;-52
2021/01/17 09:48:04;;;;;;;33.03;22.87;;;3.30;99.90;;;;;;5040220;28;20417;-54
2021/01/17 09:50:35;;;;;;;31.53;21.90;;;3.40;99.90;;;;;;5039921;28;20494;-54
2021/01/17 09:53:05;;;;;;;33.50;23.93;;;3.60;99.90;;;;;;5040372;28;20416;-54
2021/01/17 09:55:32;;;;;;;26.33;21.40;;;3.60;99.90;;;;;;5039685;28;20773;-55
2021/01/17 09:58:00;;;;;;;24.17;19.57;;;3.70;99.90;;;;;;5039751;28;20793;-54
2021/01/17 10:00:30;;;;;;;28.40;22.17;;;3.50;99.90;;;;;;5055058;28;20489;-54
2021/01/17 10:02:56;;;;;;;23.73;18.53;;;3.70;99.90;;;;;;5046450;28;20417;-56
2021/01/17 10:05:29;;;;;;;26.97;19.70;;;3.80;99.90;;;;;;5055860;28;20409;-59
2021/01/17 10:08:02;;;;;;;24.87;19.30;;;3.90;99.90;;;;;;5052148;28;20548;-59
2021/01/17 10:10:27;;;;;;;24.77;17.70;;;3.90;99.90;;;;;;5035894;28;20520;-57
2021/01/17 10:12:53;;;;;;;19.33;15.47;;;3.90;99.90;;;;;;5035693;28;20482;-60
2021/01/17 10:15:19;;;;;;;24.33;17.60;;;3.60;99.90;;;;;;5035004;28;20261;-59
2021/01/17 10:17:48;;;;;;;22.90;17.27;;;3.40;99.90;;;;;;5036198;28;20603;-59
2021/01/17 10:20:27;;;;;;;24.90;18.40;;;3.60;99.90;;;;;;5035991;28;20493;-59
2021/01/17 10:23:01;;;;;;;20.73;16.20;;;3.80;99.90;;;;;;5036532;28;20909;-58
2021/01/17 10:25:27;;;;;;;21.60;14.83;;;4.00;99.90;;;;;;5037900;28;20473;-59
2021/01/17 10:28:02;;;;;;;18.60;13.30;;;3.80;99.90;;;;;;5043824;28;20406;-57
2021/01/17 10:30:29;;;;;;;17.30;13.33;;;3.90;99.90;;;;;;5043470;28;20429;-58
2021/01/17 10:33:05;;;;;;;18.60;13.97;;;3.90;99.90;;;;;;5043991;28;20887;-57
2021/01/17 10:35:33;;;;;;;21.23;14.10;;;4.10;99.90;;;;;;5044076;28;20486;-56
2021/01/17 10:38:03;;;;;;;17.37;13.40;;;3.90;99.90;;;;;;5041938;28;20422;-55
2021/01/17 10:40:29;;;;;;;19.83;15.47;;;3.90;99.90;;;;;;5041554;28;20819;-55
2021/01/17 10:42:58;;;;;;;19.37;15.50;;;4.00;99.90;;;;;;5042536;28;20780;-53
2021/01/17 10:45:28;;;;;;;21.20;15.50;;;4.10;99.90;;;;;;5043791;28;20501;-54
2021/01/17 10:48:12;;;;;;;27.83;17.93;;;4.10;99.90;;;;;;5044699;28;20464;-56
2021/01/17 10:50:53;;;;;;;21.03;16.30;;;4.10;99.90;;;;;;5044313;28;20437;-53
2021/01/17 10:53:46;;;;;;;19.53;16.00;;;4.20;99.90;;;;;;5044282;28;20426;-54
2021/01/17 10:56:16;;;;;;;21.50;17.63;;;4.20;99.90;;;;;;5043942;28;20491;-56
2021/01/17 10:58:43;;;;;;;22.63;16.53;;;4.00;99.90;;;;;;5036204;28;20487;-57
2021/01/17 11:01:09;;;;;;;22.80;17.77;;;3.90;99.90;;;;;;5034663;28;20801;-57
2021/01/17 11:03:39;;;;;;;25.27;18.10;;;4.00;99.90;;;;;;5034842;28;20417;-59
2021/01/17 11:06:23;;;;;;;24.60;18.13;;;4.10;99.90;;;;;;5034987;28;20387;-59
2021/01/17 11:08:50;;;;;;;27.23;18.37;;;4.20;99.90;;;;;;5034920;28;20422;-59
2021/01/17 11:11:17;;;;;;;23.63;18.40;;;4.30;99.90;;;;;;5034386;28;20434;-58
2021/01/17 11:13:44;;;;;;;20.53;16.20;;;4.30;99.90;;;;;;5034080;28;20417;-59
2021/01/17 11:16:11;;;;;;;21.03;15.13;;;4.20;99.90;;;;;;5034031;28;20769;-56
2021/01/17 11:18:37;;;;;;;20.30;14.13;;;4.10;99.90;;;;;;5034279;28;20480;-57
2021/01/17 11:21:05;;;;;;;22.93;15.87;;;3.90;99.90;;;;;;5034273;28;20462;-59
2021/01/17 11:23:31;;;;;;;19.63;14.03;;;4.10;99.90;;;;;;5034568;28;20417;-57
2021/01/17 11:26:05;;;;;;;18.27;13.30;;;4.30;99.90;;;;;;5034349;28;20504;-58
2021/01/17 11:28:31;;;;;;;21.60;15.50;;;4.40;99.90;;;;;;5032497;28;20551;-58
2021/01/17 11:31:11;;;;;;;21.53;15.43;;;4.30;99.90;;;;;;5033984;28;20911;-56
2021/01/17 11:33:37;;;;;;;19.40;15.13;;;4.40;99.90;;;;;;5034463;28;20532;-60
2021/01/17 11:36:03;;;;;;;21.90;14.83;;;4.30;99.90;;;;;;5034466;28;20462;-59
2021/01/17 11:38:57;;;;;;;27.03;20.20;;;4.40;99.90;;;;;;5034186;28;20186;-57
2021/01/17 11:41:41;;;;;;;20.37;15.50;;;4.10;99.90;;;;;;5034226;28;20461;-57
2021/01/17 11:44:15;;;;;;;21.10;16.53;;;4.10;99.90;;;;;;5033285;28;20424;-59
2021/01/17 11:46:42;;;;;;;31.37;21.33;;;3.90;99.90;;;;;;5034183;28;20386;-59
2021/01/17 11:49:08;;;;;;;27.30;20.00;;;3.90;99.90;;;;;;5033242;28;20393;-60
2021/01/17 11:51:34;;;;;;;28.33;19.33;;;3.70;99.90;;;;;;5033960;28;20508;-57
2021/01/17 11:54:10;;;;;;;28.10;20.40;;;3.70;99.90;;;;;;5033994;28;20409;-59
2021/01/17 11:56:36;;;;;;;24.20;17.97;;;3.70;99.90;;;;;;5033552;28;20428;-59
2021/01/17 11:59:02;;;;;;;26.33;20.07;;;3.80;99.90;;;;;;5032270;28;20938;-59
2021/01/17 12:01:27;;;;;;;26.87;20.23;;;3.90;99.90;;;;;;5033503;28;20183;-59
2021/01/17 12:04:03;;;;;;;26.37;20.30;;;3.90;99.90;;;;;;5033764;28;20410;-59
2021/01/17 12:06:29;;;;;;;28.40;21.13;;;3.80;99.90;;;;;;5033659;28;20262;-60
2021/01/17 12:08:58;;;;;;;28.50;20.30;;;3.90;99.90;;;;;;5049427;28;20413;-58
2021/01/17 12:11:36;;;;;;;30.17;21.77;;;4.00;99.90;;;;;;5053206;28;20789;-59
2021/01/17 12:14:21;;;;;;;31.27;23.60;;;3.90;99.90;;;;;;5053069;28;20390;-59
2021/01/17 12:16:52;;;;;;;25.30;20.10;;;3.90;99.90;;;;;;5053414;28;20436;-59
2021/01/17 12:19:18;;;;;;;24.63;19.10;;;3.90;99.90;;;;;;5053479;28;20533;-59
2021/01/17 12:21:45;;;;;;;27.80;20.43;;;3.90;99.90;;;;;;5053406;28;20791;-58
2021/01/17 12:24:13;;;;;;;26.20;20.37;;;4.00;99.90;;;;;;5053452;28;20471;-59
2021/01/17 12:26:40;;;;;;;26.10;19.83;;;4.00;99.90;;;;;;5053546;28;20459;-59
2021/01/17 12:29:06;;;;;;;24.00;19.67;;;4.00;99.90;;;;;;5037987;28;20417;-60
2021/01/17 12:31:32;;;;;;;24.97;19.13;;;4.00;99.90;;;;;;5033388;28;20426;-59
2021/01/17 12:33:58;;;;;;;22.70;18.80;;;4.00;99.90;;;;;;5032784;28;20954;-59
2021/01/17 12:36:26;;;;;;;22.23;17.77;;;3.90;99.90;;;;;;5033454;28;20394;-59
2021/01/17 12:38:52;;;;;;;25.80;19.40;;;3.90;99.90;;;;;;5033854;28;20429;-59
2021/01/17 12:41:20;;;;;;;24.33;18.73;;;3.90;99.90;;;;;;5037473;28;20483;-58
2021/01/17 12:43:47;;;;;;;24.57;19.73;;;3.90;99.90;;;;;;5036697;28;20159;-58
2021/01/17 12:46:14;;;;;;;22.70;17.63;;;3.90;99.90;;;;;;5036925;28;20444;-58
2021/01/17 12:48:40;;;;;;;22.60;17.67;;;4.00;99.90;;;;;;5040406;28;20402;-56